Atlanticbeach, North Carolina
Current Conditions -  °F | °C
As of 3:58 PM on Saturday 25 Oct 2014 (Local Time) from KMRH Reporting Station
Clear Clear  
Wind Chill: 21°   Ceiling: Unl
Heat Index: 21°   Visibility: 10mi
Dew Point: 11°   Wind: 9mph
Humidity: 53%   Direction: 220°SW
Pressure: 29.9"   Gusts: NA
Location:  34.6984°N, 76.7775°W
Report Text: KMRH 251958Z AUTO 22008KT 10SM CLR 21/11 A2990 RMK AO2 SLP124 T02060106 TSNO
Loading
Personal Weather Stations






























Interactive Weather Map New forecast layout! Learn more

10-Day Weather Forecast

Advertisements
Track Severe Weather on mobile